createdAt,value
2023-01-11T00:01:06.696Z,6.30
2023-01-11T00:03:34.376Z,6.30
2023-01-11T00:06:01.279Z,6.20
2023-01-11T00:08:28.827Z,6.30
2023-01-11T00:10:56.233Z,6.20
2023-01-11T00:13:23.150Z,6.20
2023-01-11T00:15:50.033Z,5.80
2023-01-11T00:18:16.861Z,5.70
2023-01-11T00:20:43.663Z,5.80
2023-01-11T00:23:10.658Z,5.80
2023-01-11T00:25:37.936Z,5.80
2023-01-11T00:28:05.376Z,5.80
2023-01-11T00:30:32.911Z,5.70
2023-01-11T00:33:00.518Z,5.40
2023-01-11T00:35:28.117Z,5.20
2023-01-11T00:37:54.914Z,4.80
2023-01-11T00:40:24.089Z,4.90
2023-01-11T00:43:09.312Z,4.80
2023-01-11T00:45:55.309Z,4.60
2023-01-11T00:48:22.115Z,4.50
2023-01-11T00:50:48.917Z,4.60
2023-01-11T00:53:15.716Z,4.70
2023-01-11T00:55:42.818Z,4.50
2023-01-11T00:58:09.644Z,4.30
2023-01-11T01:00:36.720Z,4.30
2023-01-11T01:03:04.003Z,4.30
2023-01-11T01:05:31.281Z,4.30
2023-01-11T01:07:58.076Z,4.10
2023-01-11T01:10:25.012Z,4.20
2023-01-11T01:13:10.229Z,4.20
2023-01-11T01:15:37.109Z,4.20
2023-01-11T01:18:04.015Z,4.00
2023-01-11T01:20:31.293Z,3.90
2023-01-11T01:22:58.686Z,3.80
2023-01-11T01:25:25.498Z,3.80
2023-01-11T01:27:52.291Z,3.60
2023-01-11T01:30:19.188Z,3.80
2023-01-11T01:32:46.030Z,3.50
2023-01-11T01:35:12.821Z,3.30
2023-01-11T01:37:39.616Z,3.30
2023-01-11T01:40:07.368Z,3.40
2023-01-11T01:42:34.187Z,3.50
2023-01-11T01:45:03.868Z,3.50
2023-01-11T01:47:49.204Z,3.50
2023-01-11T01:50:33.088Z,3.30
2023-01-11T01:53:08.404Z,3.20
2023-01-11T01:55:37.843Z,3.20
2023-01-11T01:58:10.193Z,3.20
2023-01-11T02:00:40.679Z,3.30
2023-01-11T02:03:12.645Z,3.30
2023-01-11T02:05:40.121Z,3.20
2023-01-11T02:08:14.670Z,3.20
2023-01-11T02:10:41.657Z,3.20
2023-01-11T02:13:12.371Z,3.10
2023-01-11T02:15:39.229Z,3.10
2023-01-11T02:18:11.857Z,3.10
2023-01-11T02:20:50.894Z,3.00
2023-01-11T02:23:37.029Z,3.00
2023-01-11T02:26:16.059Z,3.00
2023-01-11T02:28:55.393Z,2.90
2023-01-11T02:31:33.232Z,2.90
2023-01-11T02:34:08.913Z,2.90
2023-01-11T02:37:04.624Z,2.80
2023-01-11T02:40:01.244Z,2.80
2023-01-11T02:43:16.148Z,2.80
2023-01-11T02:46:12.352Z,2.70
2023-01-11T02:48:46.949Z,2.70
2023-01-11T02:51:22.614Z,2.60
2023-01-11T02:53:57.265Z,2.50
2023-01-11T02:56:28.031Z,2.50
2023-01-11T02:58:58.108Z,2.40
2023-01-11T03:01:26.158Z,3.00
2023-01-11T03:03:53.808Z,2.50
2023-01-11T03:06:24.000Z,2.50
2023-01-11T03:09:25.007Z,2.40
2023-01-11T03:12:10.513Z,2.30
2023-01-11T03:14:52.821Z,2.20
2023-01-11T03:17:25.190Z,2.30
2023-01-11T03:20:09.811Z,2.30
2023-01-11T03:22:39.603Z,2.30
2023-01-11T03:25:20.186Z,2.30
2023-01-11T03:28:12.235Z,2.30
2023-01-11T03:30:48.599Z,2.30
2023-01-11T03:33:37.860Z,2.30
2023-01-11T03:36:30.523Z,2.20
2023-01-11T03:39:18.861Z,2.20
2023-01-11T03:41:48.633Z,2.10
2023-01-11T03:44:18.127Z,2.10
2023-01-11T03:46:49.053Z,2.20
2023-01-11T03:49:38.607Z,2.10
2023-01-11T03:52:09.838Z,2.10
2023-01-11T03:54:37.294Z,2.20
2023-01-11T03:57:06.741Z,2.20
2023-01-11T03:59:34.336Z,2.10
2023-01-11T04:02:01.671Z,2.00
2023-01-11T04:04:29.313Z,2.00
2023-01-11T04:06:56.277Z,2.10
2023-01-11T04:09:23.519Z,2.20
2023-01-11T04:11:50.334Z,2.00
2023-01-11T04:14:17.595Z,1.90
2023-01-11T04:16:44.377Z,2.00
2023-01-11T04:19:11.275Z,1.90
2023-01-11T04:21:38.048Z,2.00
2023-01-11T04:24:04.953Z,2.00
2023-01-11T04:26:31.778Z,2.00
2023-01-11T04:28:59.252Z,2.00
2023-01-11T04:31:26.590Z,1.90
2023-01-11T04:33:53.866Z,1.80
2023-01-11T04:36:20.816Z,1.80
2023-01-11T04:38:47.620Z,1.90
2023-01-11T04:41:32.960Z,1.90
2023-01-11T04:44:00.165Z,1.90
2023-01-11T04:46:27.123Z,1.90
2023-01-11T04:48:54.970Z,1.90
2023-01-11T04:51:23.529Z,1.80
2023-01-11T04:53:50.675Z,1.80
2023-01-11T04:56:18.767Z,1.80
2023-01-11T04:58:47.454Z,1.80
2023-01-11T05:01:19.142Z,1.90
2023-01-11T05:03:46.426Z,1.80
2023-01-11T05:06:14.668Z,1.90
2023-01-11T05:08:48.602Z,1.80
2023-01-11T05:11:19.064Z,1.80
2023-01-11T05:13:46.103Z,1.80
2023-01-11T05:16:24.718Z,1.90
2023-01-11T05:18:53.095Z,2.00
2023-01-11T05:21:25.217Z,1.80
2023-01-11T05:23:53.105Z,1.80
2023-01-11T05:26:25.787Z,2.00
2023-01-11T05:28:53.046Z,2.00
2023-01-11T05:31:20.050Z,2.00
2023-01-11T05:33:47.141Z,2.00
2023-01-11T05:36:18.904Z,2.00
2023-01-11T05:38:47.644Z,2.00
2023-01-11T05:41:15.801Z,2.00
2023-01-11T05:44:06.838Z,2.10
2023-01-11T05:46:36.398Z,2.10
2023-01-11T05:49:06.673Z,2.00
2023-01-11T05:51:34.145Z,1.90
2023-01-11T05:54:04.902Z,1.80
2023-01-11T05:56:32.154Z,1.80
2023-01-11T05:58:59.379Z,1.80
2023-01-11T06:01:26.560Z,1.80
2023-01-11T06:03:53.357Z,1.70
2023-01-11T06:06:21.746Z,1.60
2023-01-11T06:08:48.783Z,1.60
2023-01-11T06:11:16.556Z,1.60
2023-01-11T06:13:43.532Z,1.50
2023-01-11T06:16:13.234Z,1.50
2023-01-11T06:18:42.200Z,1.40
2023-01-11T06:21:10.728Z,1.50
2023-01-11T06:23:41.550Z,1.60
2023-01-11T06:26:11.845Z,1.50
2023-01-11T06:28:39.285Z,1.50
2023-01-11T06:31:06.632Z,1.50
2023-01-11T06:33:34.132Z,1.50
2023-01-11T06:36:08.367Z,1.60
2023-01-11T06:38:35.964Z,1.50
2023-01-11T06:41:05.561Z,1.60
2023-01-11T06:43:32.837Z,1.50
2023-01-11T06:46:00.266Z,1.50
2023-01-11T06:48:28.019Z,1.50
2023-01-11T06:50:57.679Z,1.70
2023-01-11T06:53:28.650Z,1.80
2023-01-11T06:55:58.444Z,1.70
2023-01-11T06:58:26.617Z,1.80
2023-01-11T07:00:55.947Z,1.80
2023-01-11T07:03:26.149Z,1.90
2023-01-11T07:05:54.619Z,2.00
2023-01-11T07:08:21.985Z,2.10
2023-01-11T07:10:48.846Z,2.20
2023-01-11T07:13:17.396Z,2.20
2023-01-11T07:15:46.688Z,2.20
2023-01-11T07:18:15.872Z,2.30
2023-01-11T07:20:42.807Z,2.40
2023-01-11T07:23:10.907Z,2.50
2023-01-11T07:25:38.398Z,2.60
2023-01-11T07:28:07.212Z,2.70
2023-01-11T07:30:55.325Z,2.90
2023-01-11T07:33:23.630Z,2.80
2023-01-11T07:35:50.506Z,3.00
2023-01-11T07:38:17.371Z,3.00
2023-01-11T07:40:44.282Z,3.10
2023-01-11T07:43:16.292Z,3.10
2023-01-11T07:45:46.652Z,3.30
2023-01-11T07:48:14.153Z,3.30
2023-01-11T07:50:44.497Z,3.40
2023-01-11T07:53:12.011Z,3.40
2023-01-11T07:55:39.830Z,3.50
2023-01-11T07:58:08.639Z,3.60
2023-01-11T08:00:35.948Z,3.70
2023-01-11T08:03:04.144Z,3.70
2023-01-11T08:05:31.516Z,3.90
2023-01-11T08:07:59.267Z,3.80
2023-01-11T08:10:26.403Z,3.90
2023-01-11T08:13:11.958Z,3.90
2023-01-11T08:15:43.483Z,4.00
2023-01-11T08:18:12.105Z,4.10
2023-01-11T08:20:39.593Z,4.10
2023-01-11T08:23:09.366Z,4.20
2023-01-11T08:25:36.569Z,4.30
2023-01-11T08:28:05.648Z,4.40
2023-01-11T08:30:33.168Z,4.50
2023-01-11T08:33:01.620Z,4.50
2023-01-11T08:35:28.933Z,4.60
2023-01-11T08:37:55.866Z,4.80
2023-01-11T08:40:24.336Z,4.70
2023-01-11T08:42:59.179Z,4.80
2023-01-11T08:45:26.715Z,4.70
2023-01-11T08:47:54.441Z,4.80
2023-01-11T08:50:22.552Z,5.00
2023-01-11T08:52:51.788Z,5.30
2023-01-11T08:55:19.459Z,5.40
2023-01-11T08:57:51.609Z,5.70
2023-01-11T09:00:19.302Z,5.70
2023-01-11T09:02:46.534Z,5.80
2023-01-11T09:05:14.401Z,5.70
2023-01-11T09:07:43.321Z,5.60
2023-01-11T09:10:11.237Z,5.60
2023-01-11T09:12:39.301Z,5.70
2023-01-11T09:15:09.051Z,5.80
2023-01-11T09:17:35.839Z,5.80
2023-01-11T09:20:04.160Z,5.80
2023-01-11T09:22:32.788Z,5.90
2023-01-11T09:25:01.236Z,5.90
2023-01-11T09:27:28.352Z,5.80
2023-01-11T09:29:55.391Z,5.80
2023-01-11T09:32:22.661Z,5.80
2023-01-11T09:34:50.467Z,5.70
2023-01-11T09:37:17.608Z,5.70
2023-01-11T09:39:47.465Z,5.70
2023-01-11T09:42:39.199Z,5.80
2023-01-11T09:45:17.760Z,6.00
2023-01-11T09:48:03.678Z,6.00
2023-01-11T09:50:51.375Z,5.90
2023-01-11T09:53:32.136Z,6.10
2023-01-11T09:56:02.558Z,6.20
2023-01-11T09:59:09.226Z,6.40
2023-01-11T10:01:54.181Z,6.40
2023-01-11T10:04:53.729Z,6.40
2023-01-11T10:18:27.364Z,6.50
2023-01-11T10:20:01.626Z,6.60
2023-01-11T10:22:40.991Z,6.60
2023-01-11T10:25:33.715Z,6.70
2023-01-11T10:28:08.672Z,6.70
2023-01-11T10:30:44.265Z,6.70
2023-01-11T10:33:46.135Z,6.80
2023-01-11T10:36:51.374Z,6.90
2023-01-11T10:43:13.491Z,7.10
2023-01-11T10:45:47.697Z,7.10
2023-01-11T10:48:24.855Z,7.10
2023-01-11T10:51:12.832Z,7.10
2023-01-11T10:53:54.264Z,7.10
2023-01-11T10:57:04.489Z,7.30
2023-01-11T11:00:12.445Z,7.40
2023-01-11T11:02:57.977Z,7.60
2023-01-11T11:05:55.572Z,7.80
2023-01-11T11:08:47.133Z,7.90
2023-01-11T11:11:30.130Z,8.10
2023-01-11T11:14:14.813Z,8.10
2023-01-11T11:16:54.286Z,8.30
2023-01-11T11:19:25.684Z,8.30
2023-01-11T11:21:52.657Z,8.40
2023-01-11T11:24:46.004Z,8.40
2023-01-11T11:27:43.407Z,8.30
2023-01-11T11:30:12.604Z,8.20
2023-01-11T11:32:44.303Z,8.20
2023-01-11T11:35:43.986Z,8.20
2023-01-11T11:38:27.797Z,8.20
2023-01-11T11:41:10.302Z,8.40
2023-01-11T11:43:42.566Z,8.40
2023-01-11T11:46:24.225Z,8.40
2023-01-11T11:49:12.179Z,8.40
2023-01-11T11:51:40.107Z,8.40
2023-01-11T11:54:07.481Z,8.40
2023-01-11T11:56:38.670Z,8.30
2023-01-11T11:59:09.437Z,8.30
2023-01-11T12:01:40.968Z,8.20
2023-01-11T12:04:32.368Z,8.30
2023-01-11T12:07:20.268Z,8.30
2023-01-11T12:09:51.483Z,8.20
2023-01-11T12:12:25.946Z,8.20
2023-01-11T12:15:13.577Z,8.10
2023-01-11T12:17:40.489Z,8.00
2023-01-11T12:20:32.486Z,8.20
2023-01-11T12:23:19.891Z,8.20
2023-01-11T12:26:22.945Z,8.20
2023-01-11T12:28:55.633Z,8.30
2023-01-11T12:32:00.757Z,8.40
2023-01-11T12:35:02.570Z,8.40
2023-01-11T12:37:47.460Z,8.40
2023-01-11T12:41:01.620Z,8.30
2023-01-11T12:43:50.950Z,8.30
2023-01-11T12:46:37.202Z,8.40
2023-01-11T12:49:19.756Z,8.40
2023-01-11T12:52:03.735Z,8.40
2023-01-11T12:54:52.369Z,8.50
2023-01-11T12:57:29.966Z,8.40
2023-01-11T13:00:30.609Z,8.40
2023-01-11T13:03:35.325Z,8.30
2023-01-11T13:06:15.155Z,8.20
2023-01-11T13:09:02.999Z,8.20
2023-01-11T13:11:48.634Z,8.20
2023-01-11T13:14:44.092Z,8.20
2023-01-11T13:17:37.665Z,8.20
2023-01-11T13:20:40.361Z,8.30
2023-01-11T13:23:33.129Z,8.20
2023-01-11T13:26:16.781Z,8.20
2023-01-11T13:28:48.913Z,8.20
2023-01-11T13:31:17.374Z,8.20
2023-01-11T13:33:53.631Z,8.20
2023-01-11T13:36:31.700Z,8.00
2023-01-11T13:39:21.464Z,8.10
2023-01-11T13:41:58.482Z,8.10
2023-01-11T13:44:37.183Z,8.10
2023-01-11T13:47:15.565Z,8.00
2023-01-11T13:50:08.151Z,8.00
2023-01-11T13:53:03.533Z,7.90
2023-01-11T13:55:54.955Z,7.80
2023-01-11T13:58:30.037Z,7.80
2023-01-11T14:01:16.521Z,7.80
2023-01-11T14:03:53.585Z,7.70
2023-01-11T14:06:37.642Z,7.60
2023-01-11T14:09:40.118Z,7.50
2023-01-11T14:12:26.045Z,7.50
2023-01-11T14:15:20.425Z,7.60
2023-01-11T14:18:14.678Z,7.50
2023-01-11T14:21:24.817Z,7.50
2023-01-11T14:23:54.883Z,7.40
2023-01-11T14:26:51.650Z,7.40
2023-01-11T14:29:48.583Z,7.30
2023-01-11T14:32:50.358Z,7.40
2023-01-11T14:35:48.633Z,7.40
2023-01-11T14:38:25.565Z,7.40
2023-01-11T14:40:58.889Z,7.30
2023-01-11T14:43:46.449Z,7.20
2023-01-11T14:46:34.820Z,7.20
2023-01-11T14:49:35.115Z,7.30
2023-01-11T14:52:13.294Z,7.30
2023-01-11T14:54:55.838Z,7.40
2023-01-11T14:57:43.573Z,7.40
2023-01-11T15:00:19.269Z,7.40
2023-01-11T15:02:50.480Z,7.50
2023-01-11T15:05:45.262Z,7.40
2023-01-11T15:08:17.364Z,7.40
2023-01-11T15:10:58.173Z,7.40
2023-01-11T15:13:30.499Z,7.40
2023-01-11T15:16:58.171Z,7.30
2023-01-11T15:19:37.186Z,7.30
2023-01-11T15:22:09.340Z,7.30
2023-01-11T15:24:43.158Z,7.30
2023-01-11T15:27:37.629Z,7.30
2023-01-11T15:30:29.766Z,7.20
2023-01-11T15:33:18.766Z,7.20
2023-01-11T15:35:58.180Z,7.10
2023-01-11T15:38:33.797Z,7.20
2023-01-11T15:41:22.502Z,7.20
2023-01-11T15:44:07.967Z,7.20
2023-01-11T15:47:08.409Z,7.30
2023-01-11T15:50:06.635Z,7.30
2023-01-11T15:53:00.446Z,7.30
2023-01-11T15:55:59.307Z,7.30
2023-01-11T15:58:44.322Z,7.30
2023-01-11T16:01:26.585Z,7.30
2023-01-11T16:04:00.776Z,7.20
2023-01-11T16:06:36.306Z,7.10
2023-01-11T16:09:25.290Z,7.10
2023-01-11T16:12:18.051Z,7.20
2023-01-11T16:15:06.042Z,7.20
2023-01-11T16:17:33.128Z,7.10
2023-01-11T16:20:21.059Z,7.20
2023-01-11T16:22:53.122Z,7.10
2023-01-11T16:25:21.493Z,7.20
2023-01-11T16:27:54.036Z,7.10
2023-01-11T16:30:21.440Z,7.30
2023-01-11T16:32:48.382Z,7.20
2023-01-11T16:35:25.040Z,7.30
2023-01-11T16:38:01.470Z,7.30
2023-01-11T16:40:36.542Z,7.30
2023-01-11T16:43:21.094Z,7.30
2023-01-11T16:45:50.549Z,7.30
2023-01-11T16:48:25.432Z,7.30
2023-01-11T16:51:12.021Z,7.30
2023-01-11T16:53:45.123Z,7.30
2023-01-11T16:56:18.734Z,7.30
2023-01-11T16:59:16.839Z,7.40
2023-01-11T17:01:55.787Z,7.20
2023-01-11T17:04:29.828Z,7.20
2023-01-11T17:06:58.523Z,7.40
2023-01-11T17:09:26.284Z,7.30
2023-01-11T17:11:53.588Z,7.20
2023-01-11T17:14:47.762Z,7.20
2023-01-11T17:17:14.910Z,7.20
2023-01-11T17:19:48.263Z,7.30
2023-01-11T17:22:22.055Z,7.40
2023-01-11T17:25:01.172Z,7.40
2023-01-11T17:27:33.769Z,7.40
2023-01-11T17:30:01.724Z,7.70
2023-01-11T17:32:50.111Z,7.70
2023-01-11T17:35:21.531Z,7.70
2023-01-11T17:37:58.426Z,7.70
2023-01-11T17:40:40.999Z,7.70
2023-01-11T17:43:40.605Z,7.80
2023-01-11T17:46:13.572Z,8.10
2023-01-11T17:48:53.866Z,8.20
2023-01-11T17:51:29.181Z,8.20
2023-01-11T17:53:58.340Z,8.10
2023-01-11T17:56:38.455Z,8.00
2023-01-11T17:59:25.639Z,7.90
2023-01-11T18:01:59.847Z,8.10
2023-01-11T18:04:28.588Z,8.10
2023-01-11T18:07:07.912Z,8.30
2023-01-11T18:09:41.659Z,8.30
2023-01-11T18:12:24.843Z,8.20
2023-01-11T18:14:57.885Z,8.20
2023-01-11T18:17:31.066Z,8.20
2023-01-11T18:20:02.266Z,8.10
2023-01-11T18:22:42.868Z,8.20
2023-01-11T18:25:21.792Z,8.20
2023-01-11T18:27:50.321Z,8.30
2023-01-11T18:30:32.841Z,8.20
2023-01-11T18:33:02.609Z,8.30
2023-01-11T18:35:30.673Z,8.50
2023-01-11T18:37:58.227Z,8.60
2023-01-11T18:40:25.988Z,8.60
2023-01-11T18:42:54.559Z,8.60
2023-01-11T18:45:22.034Z,8.40
2023-01-11T18:47:48.856Z,8.30
2023-01-11T18:50:18.085Z,8.30
2023-01-11T18:52:46.250Z,8.20
2023-01-11T18:55:14.897Z,8.30
2023-01-11T18:57:43.576Z,8.30
2023-01-11T19:00:15.011Z,8.30
2023-01-11T19:02:44.263Z,8.40
2023-01-11T19:05:13.731Z,8.30
2023-01-11T19:07:41.825Z,8.40
2023-01-11T19:10:20.626Z,8.40
2023-01-11T19:12:48.173Z,8.60
2023-01-11T19:15:19.727Z,8.60
2023-01-11T19:17:46.747Z,8.40
2023-01-11T19:20:19.753Z,8.40
2023-01-11T19:22:49.739Z,8.30
2023-01-11T19:25:17.449Z,8.30
2023-01-11T19:27:44.644Z,8.00
2023-01-11T19:30:13.496Z,8.20
2023-01-11T19:32:43.496Z,8.10
2023-01-11T19:35:11.501Z,8.10
2023-01-11T19:37:38.704Z,8.20
2023-01-11T19:40:12.846Z,8.20
2023-01-11T19:42:41.509Z,8.10
2023-01-11T19:45:11.324Z,8.00
2023-01-11T19:47:38.480Z,8.00
2023-01-11T19:50:06.853Z,8.10
2023-01-11T19:52:34.937Z,8.10
2023-01-11T19:55:02.228Z,8.10
2023-01-11T19:57:31.429Z,8.00
2023-01-11T19:59:59.751Z,8.00
2023-01-11T20:02:30.434Z,7.90
2023-01-11T20:04:57.388Z,8.00
2023-01-11T20:07:29.278Z,7.70
2023-01-11T20:10:05.662Z,7.80
2023-01-11T20:12:33.055Z,7.70
2023-01-11T20:15:01.679Z,7.70
2023-01-11T20:17:29.617Z,7.60
2023-01-11T20:19:57.830Z,7.60
2023-01-11T20:22:28.655Z,7.60
2023-01-11T20:24:56.981Z,7.50
2023-01-11T20:30:13.131Z,7.40
2023-01-11T20:32:42.496Z,7.40
2023-01-11T20:35:11.579Z,7.50
2023-01-11T20:37:44.836Z,7.30
2023-01-11T20:40:14.225Z,7.20
2023-01-11T20:42:44.072Z,7.30
2023-01-11T20:45:12.673Z,7.30
2023-01-11T20:47:40.041Z,7.30
2023-01-11T20:50:09.421Z,7.20
2023-01-11T20:52:36.314Z,7.20
2023-01-11T20:55:08.085Z,7.30
2023-01-11T20:57:38.886Z,7.10
2023-01-11T21:02:54.428Z,7.10
2023-01-11T21:05:21.479Z,7.00
2023-01-11T21:07:48.474Z,7.10
2023-01-11T21:10:15.428Z,7.20
2023-01-11T21:12:45.315Z,7.30
2023-01-11T21:15:13.152Z,7.40
2023-01-11T21:17:39.939Z,7.40
2023-01-11T21:20:07.629Z,7.40
2023-01-11T21:22:35.589Z,7.40
2023-01-11T21:25:08.418Z,7.40
2023-01-11T21:27:41.110Z,7.30
2023-01-11T21:30:10.719Z,7.40
2023-01-11T21:32:52.300Z,7.40
2023-01-11T21:35:46.162Z,7.30
2023-01-11T21:38:13.395Z,7.50
2023-01-11T21:40:40.336Z,7.30
2023-01-11T21:43:09.323Z,7.40
2023-01-11T21:45:36.325Z,7.40
2023-01-11T21:48:03.359Z,7.40
2023-01-11T21:50:30.313Z,7.30
2023-01-11T21:52:58.242Z,7.50
2023-01-11T21:55:55.598Z,7.40
2023-01-11T21:58:42.857Z,7.40
2023-01-11T22:01:11.653Z,7.40
2023-01-11T22:03:59.309Z,7.30
2023-01-11T22:09:30.536Z,7.40
2023-01-11T22:12:26.224Z,7.30
2023-01-11T22:18:05.815Z,7.50
2023-01-11T22:23:29.095Z,7.50
2023-01-11T22:26:14.563Z,7.50
2023-01-11T22:29:08.931Z,7.60
2023-01-11T22:31:41.559Z,7.50
2023-01-11T22:34:11.995Z,7.40
2023-01-11T22:36:43.533Z,7.40
2023-01-11T22:39:11.559Z,7.30
2023-01-11T22:41:40.649Z,7.40
2023-01-11T22:44:10.341Z,7.30
2023-01-11T22:46:38.073Z,7.40
2023-01-11T22:49:09.715Z,7.40
2023-01-11T22:51:41.709Z,7.40
2023-01-11T22:54:13.506Z,7.40
2023-01-11T22:56:41.128Z,7.40
2023-01-11T22:59:10.671Z,7.30
2023-01-11T23:01:52.425Z,7.40
2023-01-11T23:04:24.509Z,7.50
2023-01-11T23:06:53.196Z,7.40
2023-01-11T23:09:37.324Z,7.40
2023-01-11T23:12:24.522Z,7.50
2023-01-11T23:14:52.578Z,7.50
2023-01-11T23:17:22.629Z,7.70
2023-01-11T23:19:54.224Z,7.90
2023-01-11T23:22:31.374Z,7.90
2023-01-11T23:25:08.236Z,7.90
2023-01-11T23:27:35.219Z,7.80
2023-01-11T23:30:05.534Z,7.90
2023-01-11T23:32:36.218Z,8.00
2023-01-11T23:35:08.025Z,7.80
2023-01-11T23:37:42.105Z,7.80
2023-01-11T23:40:17.907Z,7.80
2023-01-11T23:42:51.262Z,7.80
2023-01-11T23:45:26.549Z,7.70
2023-01-11T23:48:10.087Z,7.70
2023-01-11T23:50:41.654Z,7.80
2023-01-11T23:53:23.039Z,7.60
2023-01-11T23:58:58.034Z,7.70
